Time;durP1;ratioP1;P1;durP2;ratioP2;P2;SDS_P1;SDS_P2;PMS_P1;PMS_P2;Temp;Humidity;BMP_temperature;BMP_pressure;BME280_temperature;BME280_humidity;BME280_pressure;Samples;Min_cycle;Max_cycle;Signal;HPM_P1;HPM_P2
2022/03/19 00:00:54;;;;;;;19.55;12.10;;;15.80;46.50;;;;;;5054767;28;20024;-72
2022/03/19 00:03:20;;;;;;;24.88;13.15;;;15.80;47.10;;;;;;5054787;28;20044;-71
2022/03/19 00:05:47;;;;;;;19.33;12.75;;;15.80;46.20;;;;;;5054475;28;20402;-71
2022/03/19 00:08:16;;;;;;;20.23;12.82;;;15.80;46.40;;;;;;5054321;28;20021;-71
2022/03/19 00:10:42;;;;;;;15.48;11.63;;;15.80;46.40;;;;;;5054123;28;20029;-73
2022/03/19 00:13:10;;;;;;;19.48;12.75;;;15.80;46.30;;;;;;5054294;28;20493;-70
2022/03/19 00:15:36;;;;;;;17.23;12.63;;;15.80;46.10;;;;;;5054566;28;20171;-71
2022/03/19 00:18:03;;;;;;;17.98;12.50;;;15.80;46.50;;;;;;5054002;28;20125;-71
2022/03/19 00:20:29;;;;;;;21.60;13.27;;;15.80;46.40;;;;;;5054234;28;20032;-71
2022/03/19 00:22:55;;;;;;;18.27;12.63;;;15.70;46.10;;;;;;5054309;28;20090;-72
2022/03/19 00:25:21;;;;;;;19.08;12.23;;;15.70;46.30;;;;;;5054744;28;20474;-70
2022/03/19 00:27:47;;;;;;;18.45;11.82;;;15.70;46.40;;;;;;5054892;28;20024;-70
2022/03/19 00:30:13;;;;;;;22.27;12.70;;;15.70;46.30;;;;;;5054220;28;20108;-71
2022/03/19 00:32:39;;;;;;;23.40;12.85;;;15.70;46.40;;;;;;5054253;28;20025;-70
2022/03/19 00:35:07;;;;;;;19.00;11.93;;;15.70;46.20;;;;;;5054164;28;20033;-69
2022/03/19 00:37:42;;;;;;;16.33;12.65;;;15.70;46.00;;;;;;5055971;28;20520;-70
2022/03/19 00:40:10;;;;;;;20.55;12.93;;;15.60;46.30;;;;;;5053796;28;20519;-70
2022/03/19 00:42:36;;;;;;;19.08;12.43;;;15.60;45.80;;;;;;5053862;28;20017;-71
2022/03/19 00:45:02;;;;;;;17.58;13.30;;;15.60;46.30;;;;;;5054179;28;20131;-71
2022/03/19 00:47:28;;;;;;;28.00;13.60;;;15.60;46.50;;;;;;5054536;28;20339;-70
2022/03/19 00:49:54;;;;;;;24.38;14.15;;;15.60;46.30;;;;;;5053650;28;20108;-70
2022/03/19 00:52:20;;;;;;;21.75;14.73;;;15.60;46.30;;;;;;5053684;28;20029;-71
2022/03/19 00:54:45;;;;;;;23.15;16.00;;;15.60;46.30;;;;;;5053802;28;20078;-70
2022/03/19 00:57:11;;;;;;;25.73;16.63;;;15.60;46.10;;;;;;5053468;28;20478;-70
2022/03/19 00:59:37;;;;;;;43.20;26.90;;;15.60;46.10;;;;;;5053552;28;20094;-72
2022/03/19 01:02:03;;;;;;;48.33;29.77;;;15.60;46.10;;;;;;5053643;28;20107;-72
2022/03/19 01:04:28;;;;;;;38.42;23.17;;;15.60;46.10;;;;;;5053395;28;20112;-70
2022/03/19 01:06:54;;;;;;;30.38;20.77;;;15.50;46.10;;;;;;5053289;28;20037;-70
2022/03/19 01:09:20;;;;;;;30.65;18.95;;;15.50;46.20;;;;;;5053333;28;20020;-71
2022/03/19 01:11:45;;;;;;;29.75;19.00;;;15.50;46.40;;;;;;5053242;28;20029;-70
2022/03/19 01:14:11;;;;;;;26.45;16.58;;;15.40;46.60;;;;;;5053255;28;20017;-71
2022/03/19 01:16:37;;;;;;;29.98;18.25;;;15.40;46.50;;;;;;5053185;28;20386;-70
2022/03/19 01:19:03;;;;;;;29.13;17.88;;;15.40;46.50;;;;;;5052740;28;20021;-70
2022/03/19 01:21:29;;;;;;;34.75;18.60;;;15.40;46.50;;;;;;5053236;28;20027;-70
2022/03/19 01:23:54;;;;;;;32.10;19.23;;;15.50;46.60;;;;;;5053309;28;20017;-69
2022/03/19 01:26:20;;;;;;;31.70;20.20;;;15.50;46.60;;;;;;5052957;28;20478;-70
2022/03/19 01:28:46;;;;;;;39.15;21.40;;;15.50;46.50;;;;;;5051069;28;20048;-70
2022/03/19 01:31:12;;;;;;;40.17;21.80;;;15.50;46.40;;;;;;5052858;28;20397;-70
2022/03/19 01:33:38;;;;;;;34.78;20.48;;;15.50;46.50;;;;;;5053120;28;20028;-71
2022/03/19 01:36:04;;;;;;;40.92;20.67;;;15.60;46.60;;;;;;5052810;28;20017;-72
2022/03/19 01:38:30;;;;;;;33.08;20.55;;;15.60;46.70;;;;;;5053034;28;20036;-70
2022/03/19 01:40:58;;;;;;;28.88;17.90;;;15.60;46.60;;;;;;5052781;28;20048;-72
2022/03/19 01:43:23;;;;;;;31.50;18.70;;;15.60;47.00;;;;;;5051587;28;20032;-71
2022/03/19 01:45:49;;;;;;;27.08;16.38;;;15.60;46.90;;;;;;5052698;28;20446;-69
2022/03/19 01:48:15;;;;;;;26.42;16.35;;;15.60;47.20;;;;;;5052867;28;20029;-72
2022/03/19 01:50:40;;;;;;;25.45;15.35;;;15.60;47.20;;;;;;5052806;28;20092;-69
2022/03/19 01:53:06;;;;;;;24.42;15.55;;;15.60;47.30;;;;;;5052742;28;20100;-71
2022/03/19 01:55:32;;;;;;;25.17;16.58;;;15.60;47.40;;;;;;5052701;28;20496;-71
2022/03/19 01:58:00;;;;;;;26.40;16.52;;;15.60;47.70;;;;;;5052918;28;20060;-71
2022/03/19 02:00:26;;;;;;;31.85;17.83;;;15.60;47.70;;;;;;5053377;28;20036;-71
2022/03/19 02:02:53;;;;;;;34.90;20.75;;;15.50;48.00;;;;;;5052983;28;20406;-72
2022/03/19 02:05:21;;;;;;;52.53;28.88;;;15.50;48.30;;;;;;5053026;28;20033;-70
2022/03/19 02:07:48;;;;;;;54.92;30.23;;;15.50;48.10;;;;;;5060509;28;20021;-70
2022/03/19 02:10:16;;;;;;;59.78;30.08;;;15.40;48.30;;;;;;5065024;28;20025;-70
2022/03/19 02:12:44;;;;;;;51.40;28.38;;;15.40;48.60;;;;;;5059582;28;20025;-71
2022/03/19 02:15:11;;;;;;;49.85;27.48;;;15.40;48.40;;;;;;5052700;28;20091;-70
2022/03/19 02:17:38;;;;;;;45.47;25.00;;;15.40;48.50;;;;;;5052657;28;20417;-72
2022/03/19 02:20:05;;;;;;;57.72;26.55;;;15.50;48.30;;;;;;5052374;28;20036;-71
2022/03/19 02:22:31;;;;;;;45.25;26.15;;;15.50;48.10;;;;;;5052504;28;20091;-69
2022/03/19 02:27:43;;;;;;;49.08;25.63;;;15.40;48.20;;;;;;5052900;28;20051;-71
2022/03/19 02:30:11;;;;;;;43.17;24.40;;;15.40;48.30;;;;;;5052227;28;20057;-71
2022/03/19 02:32:49;;;;;;;38.60;21.02;;;15.40;48.10;;;;;;5052516;28;20032;-70
2022/03/19 02:35:17;;;;;;;35.60;20.77;;;15.40;47.50;;;;;;5051055;28;20029;-69
2022/03/19 02:37:46;;;;;;;37.03;21.27;;;15.40;48.10;;;;;;5052427;28;20037;-70
2022/03/19 02:40:17;;;;;;;38.30;21.55;;;15.50;48.30;;;;;;5052545;28;20056;-69
2022/03/19 02:42:53;;;;;;;36.58;20.63;;;15.50;48.00;;;;;;5055099;28;20034;-72
2022/03/19 02:45:21;;;;;;;35.58;20.83;;;15.40;48.10;;;;;;5055853;28;20120;-73
2022/03/19 02:47:59;;;;;;;33.33;19.58;;;15.50;48.20;;;;;;5056107;28;20029;-73
2022/03/19 02:50:29;;;;;;;28.02;17.42;;;15.40;48.10;;;;;;5055609;28;20031;-70
2022/03/19 02:52:56;;;;;;;23.17;14.45;;;15.40;48.70;;;;;;5055779;28;20163;-71
2022/03/19 02:55:22;;;;;;;20.92;13.90;;;15.40;48.70;;;;;;5056020;28;20532;-70
2022/03/19 02:57:48;;;;;;;22.10;13.05;;;15.30;48.50;;;;;;5054522;28;20029;-71
2022/03/19 03:00:14;;;;;;;21.30;12.20;;;15.30;48.60;;;;;;5054302;28;20021;-70
2022/03/19 03:02:40;;;;;;;21.42;11.70;;;15.20;48.60;;;;;;5055902;28;20463;-71
2022/03/19 03:05:06;;;;;;;18.17;11.95;;;15.20;48.90;;;;;;5055631;28;20044;-70
2022/03/19 03:07:32;;;;;;;18.67;10.98;;;15.10;48.80;;;;;;5055632;28;20024;-71
2022/03/19 03:09:57;;;;;;;12.98;10.25;;;15.10;48.70;;;;;;5055360;28;20071;-70
2022/03/19 03:12:24;;;;;;;22.40;13.77;;;15.00;48.60;;;;;;5055652;28;20079;-72
2022/03/19 03:14:51;;;;;;;13.50;9.65;;;15.00;48.60;;;;;;5055552;28;20032;-69
2022/03/19 03:17:17;;;;;;;20.40;10.55;;;15.00;48.50;;;;;;5055537;28;20013;-71
2022/03/19 03:19:42;;;;;;;14.65;9.63;;;15.00;48.40;;;;;;5055440;28;20035;-70
2022/03/19 03:22:09;;;;;;;14.88;9.38;;;15.00;48.60;;;;;;5055310;28;20021;-70
2022/03/19 03:24:35;;;;;;;14.68;9.65;;;15.00;48.50;;;;;;5055398;28;20466;-72
2022/03/19 03:27:00;;;;;;;15.75;9.98;;;15.00;48.50;;;;;;5055233;28;20060;-70
2022/03/19 03:29:26;;;;;;;16.15;10.10;;;14.90;48.40;;;;;;5055405;28;20025;-70
2022/03/19 03:31:52;;;;;;;14.77;10.02;;;14.90;48.50;;;;;;5055415;28;20029;-70
2022/03/19 03:34:18;;;;;;;13.93;9.82;;;14.90;48.40;;;;;;5055347;28;20029;-72
2022/03/19 03:36:43;;;;;;;12.15;9.23;;;14.90;48.50;;;;;;5055216;28;20367;-71
2022/03/19 03:39:09;;;;;;;15.68;9.98;;;15.00;48.00;;;;;;5055068;28;20036;-71
2022/03/19 03:41:34;;;;;;;12.55;9.00;;;15.00;48.40;;;;;;5055053;28;20147;-71
2022/03/19 03:44:00;;;;;;;15.98;8.88;;;15.00;48.10;;;;;;5055131;28;20423;-72
2022/03/19 03:46:26;;;;;;;12.18;9.18;;;15.00;48.20;;;;;;5054770;28;20492;-72
2022/03/19 03:48:52;;;;;;;14.40;9.57;;;15.10;48.50;;;;;;5054924;28;20021;-70
2022/03/19 03:51:18;;;;;;;12.90;9.48;;;15.10;48.40;;;;;;5054681;28;20040;-72
2022/03/19 03:53:47;;;;;;;12.60;9.38;;;15.10;48.40;;;;;;5053965;28;20203;-70
2022/03/19 03:56:13;;;;;;;16.92;9.88;;;15.10;48.50;;;;;;5054691;28;20033;-71
2022/03/19 03:58:40;;;;;;;11.73;9.02;;;15.00;48.30;;;;;;5054558;28;20049;-70
2022/03/19 04:01:07;;;;;;;13.95;9.05;;;15.00;48.60;;;;;;5053207;28;20478;-70
2022/03/19 04:03:33;;;;;;;15.30;9.40;;;15.00;48.50;;;;;;5054644;28;20052;-70
2022/03/19 04:05:59;;;;;;;13.18;9.45;;;14.90;48.70;;;;;;5054653;28;20075;-70
2022/03/19 04:08:24;;;;;;;14.52;9.52;;;14.90;48.80;;;;;;5054415;28;20031;-70
2022/03/19 04:10:50;;;;;;;13.32;9.38;;;14.90;48.90;;;;;;5054575;28;20025;-69
2022/03/19 04:13:16;;;;;;;11.82;8.75;;;14.90;48.80;;;;;;5053110;28;20021;-69
2022/03/19 04:15:41;;;;;;;16.80;9.75;;;14.90;49.10;;;;;;5054428;28;20040;-71
2022/03/19 04:18:07;;;;;;;12.23;8.60;;;14.90;48.90;;;;;;5054383;28;20025;-71
2022/03/19 04:20:33;;;;;;;13.57;9.82;;;14.90;49.20;;;;;;5054591;28;20029;-70
2022/03/19 04:22:58;;;;;;;16.02;9.15;;;14.90;49.30;;;;;;5054261;28;20074;-71
2022/03/19 04:25:25;;;;;;;12.82;9.57;;;14.80;49.30;;;;;;5054233;28;20033;-71
2022/03/19 04:27:54;;;;;;;12.73;9.18;;;14.80;49.50;;;;;;5054210;28;20025;-69
2022/03/19 04:30:22;;;;;;;15.38;10.02;;;14.80;49.40;;;;;;5053977;28;20044;-70
2022/03/19 04:32:50;;;;;;;16.13;9.60;;;14.80;49.10;;;;;;5054128;28;20029;-70
2022/03/19 04:38:07;;;;;;;14.75;10.23;;;14.90;49.70;;;;;;5053972;28;20466;-71
2022/03/19 04:40:34;;;;;;;11.95;9.38;;;14.90;49.30;;;;;;5053684;28;20502;-72
2022/03/19 04:43:00;;;;;;;15.30;9.55;;;15.00;49.30;;;;;;5053800;28;20083;-71
2022/03/19 04:45:26;;;;;;;14.32;9.82;;;15.10;49.50;;;;;;5053770;28;20028;-70
2022/03/19 04:47:52;;;;;;;15.38;9.27;;;15.10;49.40;;;;;;5054323;28;20406;-72
2022/03/19 04:50:19;;;;;;;17.15;10.25;;;15.00;49.30;;;;;;5053574;28;20382;-71
2022/03/19 04:52:45;;;;;;;14.57;9.57;;;15.00;49.70;;;;;;5053869;28;20033;-72
2022/03/19 04:55:11;;;;;;;13.52;10.40;;;15.00;49.70;;;;;;5053729;28;20039;-70
2022/03/19 04:57:38;;;;;;;13.82;10.20;;;14.90;49.60;;;;;;5053652;28;20397;-70
2022/03/19 05:00:06;;;;;;;14.70;9.82;;;14.90;49.90;;;;;;5053321;28;20025;-73
2022/03/19 05:02:32;;;;;;;16.85;10.65;;;14.80;49.70;;;;;;5053765;28;20021;-71
2022/03/19 05:04:58;;;;;;;16.70;9.10;;;14.80;50.20;;;;;;5053445;28;20040;-70
2022/03/19 05:07:28;;;;;;;15.60;9.98;;;14.80;50.20;;;;;;5053460;28;20029;-69
2022/03/19 05:12:43;;;;;;;13.25;9.55;;;14.70;50.00;;;;;;5053905;28;20090;-71
2022/03/19 05:15:14;;;;;;;15.50;9.52;;;14.70;50.20;;;;;;5053399;28;20032;-69
2022/03/19 05:17:40;;;;;;;13.23;9.40;;;14.70;50.10;;;;;;5053517;28;20021;-70
2022/03/19 05:20:06;;;;;;;15.85;9.05;;;14.70;50.20;;;;;;5053272;28;20029;-72
2022/03/19 05:22:32;;;;;;;13.20;9.93;;;14.70;50.40;;;;;;5053190;28;20378;-70
2022/03/19 05:24:58;;;;;;;14.52;9.30;;;14.70;50.30;;;;;;5053141;28;20021;-69
2022/03/19 05:27:27;;;;;;;12.73;9.30;;;14.70;50.40;;;;;;5053193;28;20025;-70
2022/03/19 05:29:53;;;;;;;15.57;10.15;;;14.80;50.80;;;;;;5052961;28;20021;-70
2022/03/19 05:32:20;;;;;;;21.10;11.07;;;14.80;50.50;;;;;;5053877;28;20031;-71
2022/03/19 05:34:46;;;;;;;13.57;9.27;;;14.80;50.50;;;;;;5060589;28;20029;-70
2022/03/19 05:37:12;;;;;;;15.02;9.63;;;14.80;50.60;;;;;;5061224;28;20040;-72
2022/03/19 05:39:38;;;;;;;16.20;11.18;;;14.80;50.50;;;;;;5053137;28;20059;-71
2022/03/19 05:42:05;;;;;;;16.13;10.60;;;14.80;50.60;;;;;;5053462;28;20018;-71
2022/03/19 05:44:31;;;;;;;14.77;10.00;;;14.80;50.60;;;;;;5053214;28;20056;-70
2022/03/19 05:47:00;;;;;;;13.77;9.93;;;14.80;50.80;;;;;;5052782;28;20040;-71
2022/03/19 05:49:29;;;;;;;16.75;10.48;;;14.80;50.80;;;;;;5052956;28;20074;-70
2022/03/19 05:51:57;;;;;;;16.20;10.73;;;14.80;50.80;;;;;;5053082;28;20394;-70
2022/03/19 05:54:23;;;;;;;13.73;10.13;;;14.80;50.80;;;;;;5052971;28;20025;-70
2022/03/19 05:56:49;;;;;;;18.15;11.07;;;14.80;50.80;;;;;;5053212;28;20052;-71
2022/03/19 05:59:15;;;;;;;15.50;10.30;;;14.80;50.70;;;;;;5051452;28;20041;-71
2022/03/19 06:01:42;;;;;;;15.85;9.95;;;14.80;50.80;;;;;;5052848;28;20075;-70
2022/03/19 06:04:08;;;;;;;16.95;11.00;;;14.80;50.80;;;;;;5052895;28;20327;-69
2022/03/19 06:06:34;;;;;;;14.00;10.10;;;14.80;51.30;;;;;;5052693;28;20037;-71
2022/03/19 06:09:00;;;;;;;19.02;9.95;;;14.90;51.00;;;;;;5052580;28;20043;-69
2022/03/19 06:11:26;;;;;;;16.05;9.73;;;14.90;51.00;;;;;;5051205;28;20108;-70
2022/03/19 06:13:52;;;;;;;16.67;10.10;;;14.90;50.80;;;;;;5052760;28;20033;-71
2022/03/19 06:16:18;;;;;;;15.65;10.02;;;14.90;50.90;;;;;;5054961;28;20492;-71
2022/03/19 06:18:46;;;;;;;18.70;9.80;;;14.90;50.90;;;;;;5056484;28;20037;-70
2022/03/19 06:21:12;;;;;;;13.05;9.38;;;14.90;50.80;;;;;;5055387;28;20028;-70
2022/03/19 06:23:38;;;;;;;14.73;9.55;;;14.90;50.80;;;;;;5056653;28;20059;-71
2022/03/19 06:26:04;;;;;;;16.40;10.13;;;14.90;50.90;;;;;;5054972;28;20505;-71
2022/03/19 06:28:30;;;;;;;14.23;8.80;;;14.90;51.00;;;;;;5056605;28;20104;-71
2022/03/19 06:30:55;;;;;;;15.30;8.82;;;14.90;51.00;;;;;;5056717;28;20021;-71
2022/03/19 06:33:21;;;;;;;13.15;8.15;;;14.90;50.90;;;;;;5056553;28;20032;-72
2022/03/19 06:38:32;;;;;;;14.15;8.85;;;15.00;50.80;;;;;;5056429;28;20059;-71
2022/03/19 06:40:59;;;;;;;18.40;8.27;;;14.90;50.60;;;;;;5055845;28;20510;-70
2022/03/19 06:43:25;;;;;;;12.80;7.65;;;14.90;50.50;;;;;;5056179;28;20025;-72
2022/03/19 06:45:51;;;;;;;13.05;8.10;;;14.90;50.50;;;;;;5056229;28;20029;-71
2022/03/19 06:48:17;;;;;;;12.10;8.63;;;15.00;50.70;;;;;;5055904;28;20043;-71
2022/03/19 06:50:43;;;;;;;10.75;7.72;;;15.10;50.80;;;;;;5056141;28;20459;-71
2022/03/19 06:53:08;;;;;;;15.55;9.00;;;15.10;50.70;;;;;;5056047;28;20462;-70
2022/03/19 06:55:34;;;;;;;14.43;7.85;;;15.10;50.30;;;;;;5056024;28;20067;-73
2022/03/19 06:58:00;;;;;;;13.85;8.15;;;15.10;50.30;;;;;;5055851;28;20459;-73
2022/03/19 07:00:27;;;;;;;11.52;8.35;;;15.10;50.20;;;;;;5055440;28;20025;-72
2022/03/19 07:02:54;;;;;;;15.25;8.57;;;15.20;50.30;;;;;;5055728;28;20174;-71
2022/03/19 07:05:21;;;;;;;12.45;8.98;;;15.20;50.00;;;;;;5055636;28;20041;-71
2022/03/19 07:07:47;;;;;;;15.40;8.27;;;15.20;50.20;;;;;;5055762;28;20454;-71
2022/03/19 07:10:15;;;;;;;16.42;8.32;;;15.20;50.20;;;;;;5054198;28;20032;-71
2022/03/19 07:12:52;;;;;;;12.90;9.07;;;15.30;50.10;;;;;;5055764;28;20032;-72
2022/03/19 07:15:20;;;;;;;17.75;8.60;;;15.30;49.90;;;;;;5054071;28;20075;-70
2022/03/19 07:17:46;;;;;;;14.45;9.25;;;15.30;50.00;;;;;;5055064;28;20539;-70
2022/03/19 07:20:16;;;;;;;16.38;8.48;;;15.30;50.00;;;;;;5055060;28;20025;-70
2022/03/19 07:23:04;;;;;;;12.52;8.93;;;15.40;50.20;;;;;;5055188;28;20027;-69
2022/03/19 07:25:32;;;;;;;15.48;9.02;;;15.40;49.50;;;;;;5054984;28;20116;-69
2022/03/19 07:28:01;;;;;;;18.40;9.77;;;15.40;50.80;;;;;;5052606;28;20116;-71
2022/03/19 07:30:27;;;;;;;13.50;9.18;;;15.50;50.10;;;;;;5055151;28;20101;-71
2022/03/19 07:32:53;;;;;;;12.68;8.82;;;15.50;50.00;;;;;;5055049;28;20039;-70
2022/03/19 07:35:19;;;;;;;14.05;8.82;;;15.50;50.00;;;;;;5054989;28;20029;-71
2022/03/19 07:37:45;;;;;;;16.73;9.43;;;15.50;50.10;;;;;;5053800;28;20020;-71
2022/03/19 07:41:45;;;;;;;15.15;9.43;;;15.50;50.10;;;;;;5054648;28;20037;-71
2022/03/19 07:43:06;;;;;;;20.50;10.95;;;15.50;50.10;;;;;;5054469;28;20029;-71
2022/03/19 07:45:32;;;;;;;15.32;10.32;;;15.60;49.60;;;;;;5054811;28;20047;-71
2022/03/19 07:47:58;;;;;;;21.00;10.90;;;15.60;50.20;;;;;;5054716;28;20024;-72
2022/03/19 07:50:24;;;;;;;17.27;9.52;;;15.60;50.00;;;;;;5054562;28;20021;-70
2022/03/19 07:52:50;;;;;;;19.40;10.40;;;15.60;49.90;;;;;;5054443;28;20367;-70
2022/03/19 07:55:17;;;;;;;20.02;10.27;;;15.60;50.10;;;;;;5054450;28;20036;-71
2022/03/19 07:57:43;;;;;;;15.00;10.32;;;15.60;49.90;;;;;;5054343;28;20107;-72
2022/03/19 08:00:09;;;;;;;19.27;12.02;;;15.60;49.80;;;;;;5054476;28;20564;-72
2022/03/19 08:02:35;;;;;;;17.20;10.20;;;15.50;50.00;;;;;;5054496;28;20075;-71
2022/03/19 08:05:03;;;;;;;15.50;9.65;;;15.50;50.50;;;;;;5054346;28;20128;-71
2022/03/19 08:07:29;;;;;;;14.75;9.45;;;15.50;50.10;;;;;;5054077;28;20021;-70
2022/03/19 08:09:55;;;;;;;15.63;9.15;;;15.50;50.90;;;;;;5054336;28;20569;-70
2022/03/19 08:12:21;;;;;;;15.65;8.43;;;15.50;50.20;;;;;;5054055;28;20092;-71
2022/03/19 08:14:49;;;;;;;18.75;9.02;;;15.60;51.00;;;;;;5052570;28;20025;-70
2022/03/19 08:17:15;;;;;;;16.40;8.70;;;15.60;50.40;;;;;;5054281;28;20033;-70
2022/03/19 08:19:43;;;;;;;15.77;8.43;;;15.70;50.50;;;;;;5054046;28;20017;-71
2022/03/19 08:22:09;;;;;;;15.23;8.98;;;15.70;50.30;;;;;;5053722;28;20107;-71
2022/03/19 08:24:36;;;;;;;14.98;8.30;;;15.70;50.20;;;;;;5054563;28;20116;-72
2022/03/19 08:27:01;;;;;;;13.65;8.15;;;15.70;50.40;;;;;;5054241;28;20102;-70
2022/03/19 08:29:28;;;;;;;16.30;8.43;;;15.70;50.20;;;;;;5053892;28;20470;-70
2022/03/19 08:31:55;;;;;;;13.52;8.10;;;15.80;49.80;;;;;;5054078;28;20402;-72
2022/03/19 08:34:22;;;;;;;15.82;8.75;;;15.80;50.30;;;;;;5054110;28;20044;-71
2022/03/19 08:36:47;;;;;;;15.10;7.93;;;15.80;50.60;;;;;;5053960;28;20417;-71
2022/03/19 08:41:58;;;;;;;18.13;9.00;;;15.90;49.60;;;;;;5054555;28;20106;-68
2022/03/19 08:44:24;;;;;;;16.50;8.73;;;16.00;50.20;;;;;;5054025;28;20485;-70
2022/03/19 08:46:50;;;;;;;12.00;8.00;;;16.00;50.40;;;;;;5053677;28;20367;-74
2022/03/19 08:49:16;;;;;;;12.25;7.53;;;16.10;50.20;;;;;;5053813;28;20029;-72
2022/03/19 08:51:42;;;;;;;13.30;7.35;;;16.10;50.00;;;;;;5053979;28;20027;-72
2022/03/19 08:54:11;;;;;;;11.32;7.65;;;16.10;50.00;;;;;;5054425;28;20067;-71
2022/03/19 08:56:38;;;;;;;15.77;7.18;;;16.20;50.20;;;;;;5054188;28;20047;-71
2022/03/19 08:59:04;;;;;;;12.90;7.35;;;16.20;50.00;;;;;;5063449;28;20085;-71
2022/03/19 09:01:31;;;;;;;11.20;7.03;;;16.30;50.20;;;;;;5064613;28;20033;-71
2022/03/19 09:03:57;;;;;;;11.52;7.53;;;16.30;49.90;;;;;;5057416;28;20028;-72
2022/03/19 09:06:23;;;;;;;26.25;17.30;;;16.40;50.10;;;;;;5053461;28;20032;-72
2022/03/19 09:08:49;;;;;;;16.30;8.13;;;16.40;49.90;;;;;;5053443;28;20053;-71
2022/03/19 09:11:18;;;;;;;15.90;8.35;;;16.40;49.80;;;;;;5053223;28;20025;-72
2022/03/19 09:13:47;;;;;;;16.60;7.90;;;16.40;49.90;;;;;;5053068;28;20021;-71
2022/03/19 09:16:14;;;;;;;13.80;7.68;;;16.40;48.50;;;;;;5053143;28;20017;-73
2022/03/19 09:18:40;;;;;;;12.30;7.70;;;16.50;50.20;;;;;;5052954;28;20029;-71
2022/03/19 09:21:06;;;;;;;18.92;8.23;;;16.40;49.80;;;;;;5051990;28;20043;-73
2022/03/19 09:23:32;;;;;;;13.10;7.70;;;16.50;49.60;;;;;;5053109;28;20104;-71
2022/03/19 09:25:58;;;;;;;15.48;8.32;;;16.50;49.70;;;;;;5052709;28;20120;-73
2022/03/19 09:28:24;;;;;;;15.75;8.60;;;16.60;49.70;;;;;;5052852;28;20025;-71
2022/03/19 09:30:51;;;;;;;13.85;8.30;;;16.70;49.70;;;;;;5052658;28;20021;-72
2022/03/19 09:33:17;;;;;;;17.67;8.30;;;16.80;50.00;;;;;;5052552;28;20029;-73
2022/03/19 09:35:42;;;;;;;13.65;8.55;;;16.80;49.60;;;;;;5052369;28;20087;-72
2022/03/19 09:38:11;;;;;;;11.43;8.18;;;16.90;49.50;;;;;;5052656;28;20492;-73
2022/03/19 09:40:38;;;;;;;14.85;8.40;;;17.00;49.70;;;;;;5052155;28;20056;-74
2022/03/19 09:43:04;;;;;;;17.70;8.63;;;17.00;49.40;;;;;;5052604;28;20063;-72
2022/03/19 09:45:29;;;;;;;14.93;8.82;;;17.10;49.40;;;;;;5052663;28;20433;-73
2022/03/19 09:47:56;;;;;;;16.35;8.93;;;17.20;49.70;;;;;;5052813;28;20022;-74
2022/03/19 09:50:23;;;;;;;11.60;7.82;;;17.20;49.20;;;;;;5052024;28;20490;-73
2022/03/19 09:52:54;;;;;;;15.90;8.02;;;17.20;49.10;;;;;;5052414;28;20021;-72
2022/03/19 09:55:20;;;;;;;13.27;8.23;;;17.30;49.50;;;;;;5052581;28;20033;-72
2022/03/19 09:57:47;;;;;;;14.02;7.88;;;17.30;49.10;;;;;;5052213;28;20040;-74
2022/03/19 10:00:14;;;;;;;14.15;7.32;;;17.30;48.60;;;;;;5052127;28;20028;-72
2022/03/19 10:03:02;;;;;;;9.82;7.13;;;17.40;48.40;;;;;;5052673;28;20033;-72
2022/03/19 10:08:36;;;;;;;13.25;7.53;;;17.60;48.60;;;;;;5052253;28;20024;-71
2022/03/19 10:11:05;;;;;;;14.05;6.90;;;17.70;48.40;;;;;;5052651;28;20104;-72
2022/03/19 10:13:32;;;;;;;11.75;7.35;;;17.80;47.90;;;;;;5052555;28;20065;-72
2022/03/19 10:15:57;;;;;;;10.68;6.55;;;17.80;48.00;;;;;;5052257;28;20470;-71
2022/03/19 10:18:28;;;;;;;13.05;7.72;;;17.90;47.90;;;;;;5052091;28;20063;-71
2022/03/19 10:20:55;;;;;;;15.32;7.90;;;18.00;48.10;;;;;;5050922;28;20017;-73
2022/03/19 10:23:34;;;;;;;13.35;7.25;;;18.10;48.20;;;;;;5052432;28;20021;-72
2022/03/19 10:26:00;;;;;;;14.60;7.28;;;18.10;47.90;;;;;;5050769;28;20142;-71
2022/03/19 10:28:30;;;;;;;14.43;7.55;;;18.20;47.60;;;;;;5052007;28;20017;-72
2022/03/19 10:30:56;;;;;;;13.40;7.15;;;18.30;47.50;;;;;;5052369;28;20043;-71
2022/03/19 10:33:33;;;;;;;13.40;7.82;;;18.40;47.20;;;;;;5051681;28;20036;-72
2022/03/19 10:36:09;;;;;;;13.27;6.40;;;18.40;47.10;;;;;;5052330;28;20524;-72
2022/03/19 10:38:45;;;;;;;12.80;7.20;;;18.40;45.70;;;;;;5051989;28;20013;-72
2022/03/19 10:41:17;;;;;;;10.38;6.93;;;18.40;45.50;;;;;;5052016;28;20037;-72
2022/03/19 10:43:47;;;;;;;8.35;5.93;;;18.50;46.70;;;;;;5051882;28;20104;-73
2022/03/19 10:46:13;;;;;;;10.90;7.18;;;18.40;46.50;;;;;;5052278;28;20069;-71
2022/03/19 10:48:39;;;;;;;13.27;7.07;;;18.40;46.50;;;;;;5052243;28;20043;-72
2022/03/19 10:51:08;;;;;;;12.85;7.13;;;18.40;46.80;;;;;;5050725;28;20032;-71
2022/03/19 10:53:35;;;;;;;12.70;7.10;;;18.50;46.60;;;;;;5052156;28;20028;-72
2022/03/19 10:56:01;;;;;;;12.95;6.85;;;18.60;46.70;;;;;;5052320;28;20057;-73
2022/03/19 10:58:27;;;;;;;15.23;7.00;;;18.60;46.00;;;;;;5051968;28;20020;-71
2022/03/19 11:00:53;;;;;;;14.00;8.32;;;18.50;46.20;;;;;;5051733;28;20043;-71
2022/03/19 11:03:24;;;;;;;14.85;8.80;;;18.60;46.00;;;;;;5055584;28;20032;-73
2022/03/19 11:05:56;;;;;;;11.18;6.63;;;18.60;46.10;;;;;;5055615;28;20044;-72
2022/03/19 11:08:23;;;;;;;13.15;7.18;;;18.60;46.00;;;;;;5055666;28;20041;-72
2022/03/19 11:10:51;;;;;;;11.85;6.60;;;18.70;46.20;;;;;;5055630;28;20025;-73
2022/03/19 11:13:22;;;;;;;11.07;7.07;;;18.60;45.80;;;;;;5055434;28;20017;-71
2022/03/19 11:15:51;;;;;;;10.38;7.55;;;18.60;46.10;;;;;;5055194;28;20041;-72
2022/03/19 11:18:21;;;;;;;13.35;7.45;;;18.60;46.70;;;;;;5055442;28;20021;-74
2022/03/19 11:20:48;;;;;;;14.65;7.57;;;18.60;45.90;;;;;;5055392;28;20065;-71
2022/03/19 11:23:16;;;;;;;12.00;7.32;;;18.50;46.10;;;;;;5055187;28;20033;-73
2022/03/19 11:26:02;;;;;;;13.40;6.72;;;18.50;45.80;;;;;;5055235;28;20382;-72
2022/03/19 11:28:29;;;;;;;12.13;7.85;;;18.60;45.80;;;;;;5055175;28;20021;-74
2022/03/19 11:31:07;;;;;;;13.52;7.95;;;18.60;45.70;;;;;;5055171;28;20488;-72
2022/03/19 11:33:35;;;;;;;12.90;7.70;;;18.70;45.60;;;;;;5055282;28;20036;-72
2022/03/19 11:36:01;;;;;;;12.38;7.75;;;18.70;45.30;;;;;;5055519;28;20021;-71
2022/03/19 11:38:29;;;;;;;12.73;7.78;;;18.80;45.30;;;;;;5054958;28;20078;-73
2022/03/19 11:40:56;;;;;;;12.60;7.80;;;18.80;45.40;;;;;;5054687;28;20041;-73
2022/03/19 11:43:24;;;;;;;14.80;7.82;;;18.80;45.10;;;;;;5053658;28;20497;-73
2022/03/19 11:46:02;;;;;;;12.50;8.13;;;18.90;45.00;;;;;;5054643;28;20047;-71
2022/03/19 11:48:52;;;;;;;15.38;8.13;;;18.90;44.30;;;;;;5054507;28;20052;-71
2022/03/19 11:51:28;;;;;;;12.30;7.78;;;18.90;44.00;;;;;;5045161;28;20029;-73
2022/03/19 11:53:53;;;;;;;13.20;7.10;;;18.90;44.60;;;;;;5054651;28;20020;-72
2022/03/19 11:56:20;;;;;;;11.00;7.68;;;18.90;44.50;;;;;;5054971;28;20347;-72
2022/03/19 11:58:47;;;;;;;14.70;7.88;;;18.90;44.30;;;;;;5053386;28;20025;-71
2022/03/19 12:01:13;;;;;;;16.27;10.85;;;18.80;44.30;;;;;;5054735;28;20090;-71
2022/03/19 12:04:13;;;;;;;14.02;7.57;;;18.80;44.50;;;;;;5054871;28;20029;-72
2022/03/19 12:07:14;;;;;;;13.02;8.45;;;18.80;43.30;;;;;;5054973;28;20041;-71
2022/03/19 12:09:42;;;;;;;13.60;8.15;;;18.90;44.40;;;;;;5055195;28;20121;-73
2022/03/19 12:12:30;;;;;;;14.18;7.95;;;18.90;44.40;;;;;;5055513;28;20036;-71
2022/03/19 12:14:56;;;;;;;12.50;8.65;;;19.00;44.40;;;;;;5054959;28;20029;-70
2022/03/19 12:17:31;;;;;;;13.45;9.10;;;19.10;44.40;;;;;;5063023;28;20031;-72
2022/03/19 12:20:00;;;;;;;13.90;8.25;;;19.10;44.40;;;;;;5073856;28;20524;-72
2022/03/19 12:22:36;;;;;;;14.68;8.30;;;19.10;44.20;;;;;;5074448;28;20033;-72
2022/03/19 12:25:18;;;;;;;16.02;8.30;;;19.10;43.50;;;;;;5055425;28;20056;-72
2022/03/19 12:27:53;;;;;;;13.27;8.65;;;19.20;43.40;;;;;;5054196;28;20051;-72
2022/03/19 12:30:21;;;;;;;12.15;7.95;;;19.20;44.00;;;;;;5054195;28;20528;-72
2022/03/19 12:32:54;;;;;;;15.80;8.15;;;19.30;43.80;;;;;;5054526;28;20066;-71
2022/03/19 12:35:42;;;;;;;10.50;7.90;;;19.30;43.30;;;;;;5054259;28;20013;-73
2022/03/19 12:38:09;;;;;;;11.88;7.80;;;19.30;43.30;;;;;;5053807;28;20075;-72
2022/03/19 12:43:21;;;;;;;14.32;8.13;;;19.30;43.20;;;;;;5053778;28;20120;-72
2022/03/19 12:45:49;;;;;;;10.85;7.82;;;19.30;43.40;;;;;;5054109;28;20091;-70
2022/03/19 12:48:18;;;;;;;15.45;8.55;;;19.20;43.80;;;;;;5052917;28;20017;-72
2022/03/19 12:50:49;;;;;;;13.40;8.90;;;19.20;43.50;;;;;;5053973;28;20079;-71
2022/03/19 12:53:15;;;;;;;17.23;8.70;;;19.20;43.30;;;;;;5052539;28;20536;-72
2022/03/19 12:55:40;;;;;;;19.52;8.20;;;19.20;43.30;;;;;;5053727;28;20029;-72